Stations météo

réclame
Mon MeteoGroup
Lluc, Espagne (8304): Température de l'air & dewpoint: 19.06.2018 15:00:00 - 25.06.2018 15:00:00 (CEST)Lluc, Espagne (8304): Vitesse du vent & gusts: 19.06.2018 15:00:00 - 25.06.2018 15:00:00 (CEST)Lluc, Espagne (8304): Direction du vent: 19.06.2018 15:00:00 - 25.06.2018 15:00:00 (CEST)Lluc, Espagne (8304): Quantités de précipitations: 19.06.2018 15:00:00 - 25.06.2018 15:00:00 (CEST)
Date & Time tt [°C] td [°C] ff [km/h] ff [knt] fx [km/h] fx [knt] dd rr [mm]
25.06.2018 15:00:00 25,8 12,6 4 2 21 12 SSW 0,0
25.06.2018 14:00:00 24,7 12,6 3 2 16 8 SE -
25.06.2018 13:00:00 24,7 12,6 3 1 14 8 E 0,0
25.06.2018 12:00:00 26,0 12,1 1 1 16 9 S 0,0
25.06.2018 11:00:00 26,1 10,6 2 1 9 5 WNW 0,0
25.06.2018 10:00:00 23,5 12,2 3 2 7 4 NW 0,0
25.06.2018 09:00:00 20,9 13,9 0 0 1 1 N 0,0
25.06.2018 08:00:00 13,6 11,7 0 0 0 0 N -
25.06.2018 07:00:00 12,2 10,4 0 0 0 0 N 0,0
25.06.2018 06:00:00 12,3 10,4 0 0 0 0 N 0,0
25.06.2018 05:00:00 12,5 10,2 0 0 0 0 N 0,0
25.06.2018 04:00:00 13,1 10,4 0 0 0 0 N 0,0
25.06.2018 03:00:00 13,7 11,0 0 0 0 0 N 0,0
25.06.2018 02:00:00 14,8 11,9 0 0 3 2 N -
25.06.2018 01:00:00 16,0 12,7 0 0 7 4 E 0,0
25.06.2018 00:00:00 15,6 12,1 0 0 5 3 ESE 0,0
24.06.2018 23:00:00 16,7 12,4 0 0 0 0 N 0,0
24.06.2018 22:00:00 18,7 14,1 0 0 0 0 N 0,0
24.06.2018 21:00:00 20,9 14,3 0 0 9 5 N 0,0
24.06.2018 20:00:00 22,2 14,3 1 1 9 5 ESE -
24.06.2018 19:00:00 23,1 14,1 1 1 12 6 SSE 0,0
24.06.2018 18:00:00 23,5 14,2 3 1 11 6 SE 0,0
24.06.2018 17:00:00 23,1 14,1 2 1 16 9 SSE 0,0
24.06.2018 16:00:00 23,6 14,0 3 2 11 6 S 0,0
24.06.2018 15:00:00 23,2 14,5 0 0 19 10 SE 0,0
24.06.2018 14:00:00 25,0 15,1 4 2 18 10 S -
24.06.2018 13:00:00 23,4 14,1 5 3 16 9 ENE 0,0
24.06.2018 12:00:00 24,3 15,3 3 2 20 11 S 0,0
24.06.2018 11:00:00 24,7 14,1 1 1 12 7 S 0,0
24.06.2018 10:00:00 22,9 14,7 1 1 7 4 W 0,0
24.06.2018 09:00:00 20,4 12,6 0 0 6 3 N 0,0
24.06.2018 08:00:00 14,0 11,7 0 0 0 0 N -
24.06.2018 07:00:00 12,3 9,2 0 0 0 0 N 0,0
24.06.2018 06:00:00 12,1 8,4 0 0 0 0 N 0,0
24.06.2018 05:00:00 12,0 8,3 0 0 0 0 N 0,0
24.06.2018 04:00:00 12,1 8,4 0 0 0 0 N 0,0
24.06.2018 03:00:00 12,9 8,8 0 0 0 0 N 0,0
24.06.2018 02:00:00 14,1 10,5 0 0 0 0 N -
24.06.2018 01:00:00 15,3 12,1 0 0 0 0 N 0,0
24.06.2018 00:00:00 16,4 12,1 0 0 0 0 N 0,0
23.06.2018 23:00:00 17,1 11,8 0 0 0 0 N 0,0
23.06.2018 22:00:00 18,7 11,2 0 0 5 3 N 0,0
23.06.2018 21:00:00 20,6 11,2 1 0 9 5 SSE 0,0
23.06.2018 20:00:00 22,5 10,6 3 1 14 8 SSE -
23.06.2018 19:00:00 23,4 10,8 4 2 14 7 SSE 0,0
23.06.2018 18:00:00 23,8 10,4 5 3 15 8 SSE 0,0
23.06.2018 17:00:00 25,2 11,8 3 1 16 9 SSE 0,0
23.06.2018 16:00:00 25,3 12,2 4 2 17 9 SSE 0,0
23.06.2018 15:00:00 25,3 12,2 0 0 18 10 S 0,0
23.06.2018 14:00:00 24,0 12,3 4 2 13 7 SSW -
23.06.2018 13:00:00 24,1 12,7 2 1 11 6 SE 0,0
23.06.2018 12:00:00 23,2 13,4 3 2 12 6 E 0,0
23.06.2018 11:00:00 23,2 14,5 2 1 14 8 NE 0,0
23.06.2018 10:00:00 24,6 14,4 1 1 6 4 S 0,0
23.06.2018 09:00:00 22,9 15,0 1 1 7 4 W 0,0
23.06.2018 08:00:00 17,9 15,7 0 0 0 0 N -
23.06.2018 07:00:00 17,1 14,9 0 0 0 0 N 0,0
23.06.2018 06:00:00 16,9 14,7 0 0 0 0 N 0,0
23.06.2018 05:00:00 16,7 14,5 0 0 5 3 N 0,0
23.06.2018 04:00:00 16,4 14,2 1 1 5 3 SE 0,0
23.06.2018 03:00:00 16,9 14,5 0 0 0 0 N 0,0
23.06.2018 02:00:00 17,0 14,4 0 0 0 0 N -
23.06.2018 01:00:00 17,8 14,7 0 0 0 0 N 0,0
23.06.2018 00:00:00 18,8 14,7 0 0 0 0 N 0,0
22.06.2018 23:00:00 20,6 14,7 1 1 12 6 E 0,0
22.06.2018 22:00:00 21,0 14,9 4 2 14 8 E 0,0
22.06.2018 21:00:00 22,0 15,6 6 3 18 10 SE 0,0
22.06.2018 20:00:00 23,0 16,0 7 4 19 10 SE -
22.06.2018 19:00:00 24,2 15,4 5 3 20 11 SSE 0,0
22.06.2018 18:00:00 24,8 14,2 6 3 22 12 ESE 0,0
22.06.2018 17:00:00 25,2 13,4 5 3 19 10 SE 0,0
22.06.2018 16:00:00 26,6 13,4 5 3 22 12 SSE 0,0
22.06.2018 15:00:00 27,4 13,0 5 3 26 14 SSE 0,0
22.06.2018 14:00:00 27,5 13,1 3 2 16 8 E -
22.06.2018 13:00:00 27,1 12,7 2 1 20 11 ESE 0,0
22.06.2018 12:00:00 27,3 11,8 10 5 21 12 E 0,0
22.06.2018 11:00:00 27,7 10,4 2 1 13 7 NNE 0,0
22.06.2018 10:00:00 25,2 9,9 2 1 6 4 W 0,0
22.06.2018 09:00:00 22,4 14,5 0 0 0 0 N 0,0
22.06.2018 08:00:00 14,8 12,6 0 0 0 0 N -
22.06.2018 07:00:00 13,4 11,2 0 0 0 0 N 0,0
22.06.2018 06:00:00 13,0 10,8 0 0 0 0 N 0,0
22.06.2018 05:00:00 13,2 10,5 0 0 0 0 N 0,0
22.06.2018 04:00:00 13,8 11,1 0 0 0 0 N 0,0
22.06.2018 03:00:00 14,2 11,2 0 0 0 0 N 0,0
22.06.2018 02:00:00 14,9 11,9 0 0 0 0 N -
22.06.2018 01:00:00 15,9 12,2 0 0 0 0 N 0,0
22.06.2018 00:00:00 17,1 12,8 0 0 0 0 N 0,0
21.06.2018 23:00:00 18,4 13,5 0 0 4 2 N 0,0
21.06.2018 22:00:00 20,4 13,4 0 0 9 5 SSE 0,0
21.06.2018 21:00:00 22,0 11,7 2 1 11 6 ESE 0,0
21.06.2018 20:00:00 23,6 11,0 3 1 13 7 SSE -
21.06.2018 19:00:00 24,7 11,7 1 0 11 6 SSW 0,0
21.06.2018 18:00:00 25,3 10,3 1 1 18 10 S 0,0
21.06.2018 17:00:00 25,7 9,6 4 2 24 13 WSW 0,0
21.06.2018 16:00:00 27,2 9,0 4 2 19 10 SSW 0,0
21.06.2018 15:00:00 26,5 8,5 7 4 22 12 ENE 0,0
21.06.2018 14:00:00 26,7 9,6 3 2 18 10 E -
21.06.2018 13:00:00 26,3 9,6 6 3 16 9 ENE 0,0
21.06.2018 12:00:00 26,6 10,8 5 3 16 9 NE 0,0
21.06.2018 11:00:00 26,6 11,1 2 1 11 6 SSE 0,0
21.06.2018 10:00:00 24,1 10,4 1 0 8 4 NW 0,0
21.06.2018 09:00:00 21,9 16,6 0 0 0 0 N 0,0
21.06.2018 08:00:00 14,7 13,0 0 0 0 0 N -
21.06.2018 07:00:00 13,4 11,7 0 0 0 0 N 0,0
21.06.2018 06:00:00 13,6 11,7 0 0 0 0 N 0,0
21.06.2018 05:00:00 13,9 11,9 0 0 0 0 N 0,0
21.06.2018 04:00:00 14,3 12,2 0 0 0 0 N 0,0
21.06.2018 03:00:00 14,6 12,3 0 0 0 0 N 0,0
21.06.2018 02:00:00 15,3 12,6 0 0 0 0 N -
21.06.2018 01:00:00 16,0 12,7 0 0 0 0 N 0,0
21.06.2018 00:00:00 17,5 12,8 0 0 7 4 N 0,0
20.06.2018 23:00:00 19,1 12,8 4 2 8 4 E 0,0
20.06.2018 22:00:00 19,8 12,1 1 0 13 7 SE 0,0
20.06.2018 21:00:00 21,8 10,9 3 1 17 9 S 0,0
20.06.2018 20:00:00 23,2 11,6 5 3 13 7 SSE -
20.06.2018 19:00:00 24,2 11,9 1 1 13 7 ESE 0,0
20.06.2018 18:00:00 24,9 13,5 3 1 13 7 WSW 0,0
20.06.2018 17:00:00 25,5 10,9 3 2 14 8 S 0,0
20.06.2018 16:00:00 26,1 10,3 1 1 18 10 ESE 0,0
20.06.2018 15:00:00 26,2 10,8 2 1 16 9 ESE 0,0
20.06.2018 14:00:00 26,5 11,0 3 2 16 9 WSW -
20.06.2018 13:00:00 26,1 10,6 5 3 16 9 SE 0,0
20.06.2018 12:00:00 25,7 10,3 3 2 12 7 ESE 0,0
20.06.2018 11:00:00 25,6 10,6 3 1 9 5 WNW 0,0
20.06.2018 10:00:00 23,3 10,4 1 1 6 3 WNW 0,0
20.06.2018 09:00:00 20,2 13,9 1 1 6 3 WNW 0,0
20.06.2018 08:00:00 12,7 10,9 0 0 0 0 N -
20.06.2018 07:00:00 11,2 9,3 0 0 0 0 N 0,0
20.06.2018 06:00:00 11,2 9,2 0 0 0 0 N 0,0
20.06.2018 05:00:00 11,6 9,6 0 0 0 0 N 0,0
20.06.2018 04:00:00 12,0 9,7 0 0 0 0 N 0,0
20.06.2018 03:00:00 12,4 9,9 0 0 0 0 N 0,0
20.06.2018 02:00:00 12,9 10,0 0 0 0 0 N -
20.06.2018 01:00:00 13,6 10,2 0 0 0 0 N 0,0
20.06.2018 00:00:00 14,5 9,9 0 0 0 0 N 0,0
19.06.2018 23:00:00 15,6 9,7 0 0 0 0 N 0,0
19.06.2018 22:00:00 17,5 9,4 0 0 3 2 ENE 0,0
19.06.2018 21:00:00 19,3 9,2 0 0 7 4 N 0,0
19.06.2018 20:00:00 21,4 8,9 3 1 10 5 SSE -
19.06.2018 19:00:00 22,4 8,5 4 2 16 9 SSE 0,0
19.06.2018 18:00:00 23,2 9,2 5 3 18 10 SSE 0,0
19.06.2018 17:00:00 23,5 9,4 5 3 18 10 ESE 0,0
19.06.2018 16:00:00 23,8 9,8 3 2 18 10 SE 0,0
19.06.2018 15:00:00 24,0 10,3 5 3 17 9 ESE 0,0

tt = Température de l'air
td = dewpoint
ff = Vitesse du vent
fx = gusts
dd = Direction du vent
rr = Quantités de précipitations

stations d'obs. à proximité